Terminal Aerodrome Forecast
Issued by NWS

Home | Current Version | Previous Version | Text Only | Print | Product List | Glossary On
Versions: 1 2 3 4 5 6 7 8 9 10 11 12 13 14 15
000
FTUS46 KMTR 011100
TAFOAK
TAF
KOAK 011120Z 0112/0218 32005KT P6SM SCT007
      TEMPO 0113/0116 BKN007
     FM011700 32009KT P6SM FEW010
     FM012100 30015KT P6SM FEW250
     FM020400 30008KT P6SM FEW250=

USA.gov is the U.S. government's official web portal to all federal, state and local government web resources and services.